sensor_id;sensor_type;location;lat;lon;timestamp;temperature;humidity
46898;DHT22;32646;50.958;6.258;2023-06-26T00:00:15;19.70;99.90
46898;DHT22;32646;50.958;6.258;2023-06-26T00:02:41;19.60;99.90
46898;DHT22;32646;50.958;6.258;2023-06-26T00:05:08;19.50;99.90
46898;DHT22;32646;50.958;6.258;2023-06-26T00:07:35;19.40;99.90
46898;DHT22;32646;50.958;6.258;2023-06-26T00:10:03;19.40;99.90
46898;DHT22;32646;50.958;6.258;2023-06-26T00:12:30;19.30;99.90
46898;DHT22;32646;50.958;6.258;2023-06-26T00:14:58;19.30;99.90
46898;DHT22;32646;50.958;6.258;2023-06-26T00:17:24;19.20;99.90
46898;DHT22;32646;50.958;6.258;2023-06-26T00:19:52;19.10;99.90
46898;DHT22;32646;50.958;6.258;2023-06-26T00:22:20;19.10;99.90
46898;DHT22;32646;50.958;6.258;2023-06-26T00:24:47;19.10;99.90
46898;DHT22;32646;50.958;6.258;2023-06-26T00:27:13;19.00;99.90
46898;DHT22;32646;50.958;6.258;2023-06-26T00:29:40;19.10;99.90
46898;DHT22;32646;50.958;6.258;2023-06-26T00:32:07;19.20;99.90
46898;DHT22;32646;50.958;6.258;2023-06-26T00:34:33;19.30;99.90
46898;DHT22;32646;50.958;6.258;2023-06-26T00:37:00;19.30;99.90
46898;DHT22;32646;50.958;6.258;2023-06-26T00:39:27;19.30;99.90
46898;DHT22;32646;50.958;6.258;2023-06-26T00:41:53;19.10;99.90
46898;DHT22;32646;50.958;6.258;2023-06-26T00:44:20;19.10;99.90
46898;DHT22;32646;50.958;6.258;2023-06-26T00:46:47;19.10;99.90
46898;DHT22;32646;50.958;6.258;2023-06-26T00:49:13;19.10;99.90
46898;DHT22;32646;50.958;6.258;2023-06-26T00:51:41;19.10;99.90
46898;DHT22;32646;50.958;6.258;2023-06-26T00:54:07;19.10;99.90
46898;DHT22;32646;50.958;6.258;2023-06-26T00:56:35;19.10;99.90
46898;DHT22;32646;50.958;6.258;2023-06-26T00:59:01;19.00;99.90
46898;DHT22;32646;50.958;6.258;2023-06-26T01:01:28;19.00;99.90
46898;DHT22;32646;50.958;6.258;2023-06-26T01:03:55;19.00;99.90
46898;DHT22;32646;50.958;6.258;2023-06-26T01:06:23;18.90;99.90
46898;DHT22;32646;50.958;6.258;2023-06-26T01:08:51;18.80;99.90
46898;DHT22;32646;50.958;6.258;2023-06-26T01:11:18;18.80;99.90
46898;DHT22;32646;50.958;6.258;2023-06-26T01:13:45;18.90;99.90
46898;DHT22;32646;50.958;6.258;2023-06-26T01:16:12;19.00;99.90
46898;DHT22;32646;50.958;6.258;2023-06-26T01:18:41;18.90;99.90
46898;DHT22;32646;50.958;6.258;2023-06-26T01:21:13;18.80;99.90
46898;DHT22;32646;50.958;6.258;2023-06-26T01:23:47;18.70;99.90
46898;DHT22;32646;50.958;6.258;2023-06-26T01:26:21;18.60;99.90
46898;DHT22;32646;50.958;6.258;2023-06-26T01:28:53;18.50;99.90
46898;DHT22;32646;50.958;6.258;2023-06-26T01:31:20;18.70;99.90
46898;DHT22;32646;50.958;6.258;2023-06-26T01:33:47;18.70;99.90
46898;DHT22;32646;50.958;6.258;2023-06-26T01:36:13;18.90;99.90
46898;DHT22;32646;50.958;6.258;2023-06-26T01:38:40;19.10;99.90
46898;DHT22;32646;50.958;6.258;2023-06-26T01:41:07;19.10;99.90
46898;DHT22;32646;50.958;6.258;2023-06-26T01:46:41;19.60;99.90
46898;DHT22;32646;50.958;6.258;2023-06-26T01:49:17;19.70;99.90
46898;DHT22;32646;50.958;6.258;2023-06-26T01:51:51;19.80;99.90
46898;DHT22;32646;50.958;6.258;2023-06-26T01:54:21;19.90;99.90
46898;DHT22;32646;50.958;6.258;2023-06-26T01:56:50;19.80;99.90
46898;DHT22;32646;50.958;6.258;2023-06-26T01:59:19;19.70;99.90
46898;DHT22;32646;50.958;6.258;2023-06-26T02:01:47;19.70;99.90
46898;DHT22;32646;50.958;6.258;2023-06-26T02:04:14;19.90;99.90
46898;DHT22;32646;50.958;6.258;2023-06-26T02:06:40;19.80;99.90
46898;DHT22;32646;50.958;6.258;2023-06-26T02:09:07;19.80;99.90
46898;DHT22;32646;50.958;6.258;2023-06-26T02:11:34;19.90;99.90
46898;DHT22;32646;50.958;6.258;2023-06-26T02:14:00;20.10;99.90
46898;DHT22;32646;50.958;6.258;2023-06-26T02:16:27;20.20;99.90
46898;DHT22;32646;50.958;6.258;2023-06-26T02:18:54;20.20;99.90
46898;DHT22;32646;50.958;6.258;2023-06-26T02:21:20;20.20;99.90
46898;DHT22;32646;50.958;6.258;2023-06-26T02:23:47;20.20;99.90
46898;DHT22;32646;50.958;6.258;2023-06-26T02:26:13;20.30;99.90
46898;DHT22;32646;50.958;6.258;2023-06-26T02:28:40;20.30;99.90
46898;DHT22;32646;50.958;6.258;2023-06-26T02:31:07;20.40;99.90
46898;DHT22;32646;50.958;6.258;2023-06-26T02:33:33;20.50;99.90
46898;DHT22;32646;50.958;6.258;2023-06-26T02:36:00;20.40;99.90
46898;DHT22;32646;50.958;6.258;2023-06-26T02:38:27;20.30;99.90
46898;DHT22;32646;50.958;6.258;2023-06-26T02:40:53;20.30;99.90
46898;DHT22;32646;50.958;6.258;2023-06-26T02:43:20;20.30;99.90
46898;DHT22;32646;50.958;6.258;2023-06-26T02:45:46;20.40;99.90
46898;DHT22;32646;50.958;6.258;2023-06-26T02:48:13;20.40;99.90
46898;DHT22;32646;50.958;6.258;2023-06-26T02:50:40;20.40;99.90
46898;DHT22;32646;50.958;6.258;2023-06-26T02:53:07;20.40;99.90
46898;DHT22;32646;50.958;6.258;2023-06-26T02:55:34;20.50;99.90
46898;DHT22;32646;50.958;6.258;2023-06-26T02:58:00;20.40;99.90
46898;DHT22;32646;50.958;6.258;2023-06-26T03:00:27;20.30;99.90
46898;DHT22;32646;50.958;6.258;2023-06-26T03:02:54;20.30;99.90
46898;DHT22;32646;50.958;6.258;2023-06-26T03:05:20;20.40;99.90
46898;DHT22;32646;50.958;6.258;2023-06-26T03:07:47;20.30;99.90
46898;DHT22;32646;50.958;6.258;2023-06-26T03:10:14;20.30;99.90
46898;DHT22;32646;50.958;6.258;2023-06-26T03:12:40;20.20;99.90
46898;DHT22;32646;50.958;6.258;2023-06-26T03:15:07;20.10;99.90
46898;DHT22;32646;50.958;6.258;2023-06-26T03:17:34;20.00;99.90
46898;DHT22;32646;50.958;6.258;2023-06-26T03:20:00;20.00;99.90
46898;DHT22;32646;50.958;6.258;2023-06-26T03:22:27;20.00;99.90
46898;DHT22;32646;50.958;6.258;2023-06-26T03:24:54;20.00;99.90
46898;DHT22;32646;50.958;6.258;2023-06-26T03:27:20;20.00;99.90
46898;DHT22;32646;50.958;6.258;2023-06-26T03:29:47;19.90;99.90
46898;DHT22;32646;50.958;6.258;2023-06-26T03:32:13;20.00;99.90
46898;DHT22;32646;50.958;6.258;2023-06-26T03:34:40;19.90;99.90
46898;DHT22;32646;50.958;6.258;2023-06-26T03:37:07;19.70;99.90
46898;DHT22;32646;50.958;6.258;2023-06-26T03:39:33;19.70;99.90
46898;DHT22;32646;50.958;6.258;2023-06-26T03:42:00;19.70;99.90
46898;DHT22;32646;50.958;6.258;2023-06-26T03:44:27;19.70;99.90
46898;DHT22;32646;50.958;6.258;2023-06-26T03:46:54;19.70;99.90
46898;DHT22;32646;50.958;6.258;2023-06-26T03:49:20;19.60;99.90
46898;DHT22;32646;50.958;6.258;2023-06-26T03:51:47;19.50;99.90
46898;DHT22;32646;50.958;6.258;2023-06-26T03:54:13;19.50;99.90
46898;DHT22;32646;50.958;6.258;2023-06-26T03:56:40;19.50;99.90
46898;DHT22;32646;50.958;6.258;2023-06-26T03:59:07;19.60;99.90
46898;DHT22;32646;50.958;6.258;2023-06-26T04:01:33;19.50;99.90
46898;DHT22;32646;50.958;6.258;2023-06-26T04:04:02;19.40;99.90
46898;DHT22;32646;50.958;6.258;2023-06-26T04:06:28;19.40;99.90
46898;DHT22;32646;50.958;6.258;2023-06-26T04:08:55;19.40;99.90
46898;DHT22;32646;50.958;6.258;2023-06-26T04:11:21;19.40;99.90
46898;DHT22;32646;50.958;6.258;2023-06-26T04:13:48;19.30;99.90
46898;DHT22;32646;50.958;6.258;2023-06-26T04:16:15;19.30;99.90
46898;DHT22;32646;50.958;6.258;2023-06-26T04:18:41;19.30;99.90
46898;DHT22;32646;50.958;6.258;2023-06-26T04:21:10;19.20;99.90
46898;DHT22;32646;50.958;6.258;2023-06-26T04:23:37;19.20;99.90
46898;DHT22;32646;50.958;6.258;2023-06-26T04:26:05;19.10;99.90
46898;DHT22;32646;50.958;6.258;2023-06-26T04:28:35;19.10;99.90
46898;DHT22;32646;50.958;6.258;2023-06-26T04:31:02;19.10;99.90
46898;DHT22;32646;50.958;6.258;2023-06-26T04:33:29;19.00;99.90
46898;DHT22;32646;50.958;6.258;2023-06-26T04:35:56;19.00;99.90
46898;DHT22;32646;50.958;6.258;2023-06-26T04:38:22;19.00;99.90
46898;DHT22;32646;50.958;6.258;2023-06-26T04:40:49;19.00;99.90
46898;DHT22;32646;50.958;6.258;2023-06-26T04:43:16;19.00;99.90
46898;DHT22;32646;50.958;6.258;2023-06-26T04:45:43;19.00;99.90
46898;DHT22;32646;50.958;6.258;2023-06-26T04:48:09;19.00;99.90
46898;DHT22;32646;50.958;6.258;2023-06-26T04:50:36;19.00;99.90
46898;DHT22;32646;50.958;6.258;2023-06-26T04:53:03;18.90;99.90
46898;DHT22;32646;50.958;6.258;2023-06-26T04:55:30;18.90;99.90
46898;DHT22;32646;50.958;6.258;2023-06-26T04:57:56;19.00;99.90
46898;DHT22;32646;50.958;6.258;2023-06-26T05:00:23;18.90;99.90
46898;DHT22;32646;50.958;6.258;2023-06-26T05:02:49;18.90;99.90
46898;DHT22;32646;50.958;6.258;2023-06-26T05:05:16;18.90;99.90
46898;DHT22;32646;50.958;6.258;2023-06-26T05:07:43;19.00;99.90
46898;DHT22;32646;50.958;6.258;2023-06-26T05:10:09;19.00;99.90
46898;DHT22;32646;50.958;6.258;2023-06-26T05:12:36;19.00;99.90
46898;DHT22;32646;50.958;6.258;2023-06-26T05:15:03;19.00;99.90
46898;DHT22;32646;50.958;6.258;2023-06-26T05:17:29;19.10;99.90
46898;DHT22;32646;50.958;6.258;2023-06-26T05:19:56;19.10;99.90
46898;DHT22;32646;50.958;6.258;2023-06-26T05:22:23;19.10;99.90
46898;DHT22;32646;50.958;6.258;2023-06-26T05:24:51;19.10;99.90
46898;DHT22;32646;50.958;6.258;2023-06-26T05:27:21;19.10;99.90
46898;DHT22;32646;50.958;6.258;2023-06-26T05:29:48;19.10;99.90
46898;DHT22;32646;50.958;6.258;2023-06-26T05:32:16;19.10;99.90
46898;DHT22;32646;50.958;6.258;2023-06-26T05:34:46;19.10;99.90
46898;DHT22;32646;50.958;6.258;2023-06-26T05:37:17;19.10;99.90
46898;DHT22;32646;50.958;6.258;2023-06-26T05:39:45;19.20;99.90
46898;DHT22;32646;50.958;6.258;2023-06-26T05:42:12;19.30;99.90
46898;DHT22;32646;50.958;6.258;2023-06-26T05:44:39;19.30;99.90
46898;DHT22;32646;50.958;6.258;2023-06-26T05:47:05;19.30;99.90
46898;DHT22;32646;50.958;6.258;2023-06-26T05:49:32;19.40;99.90
46898;DHT22;32646;50.958;6.258;2023-06-26T05:51:59;19.40;99.90
46898;DHT22;32646;50.958;6.258;2023-06-26T05:54:26;19.50;99.90
46898;DHT22;32646;50.958;6.258;2023-06-26T05:56:56;19.60;99.90
46898;DHT22;32646;50.958;6.258;2023-06-26T05:59:23;19.60;99.90
46898;DHT22;32646;50.958;6.258;2023-06-26T06:01:50;19.60;99.90
46898;DHT22;32646;50.958;6.258;2023-06-26T06:04:17;19.50;99.90
46898;DHT22;32646;50.958;6.258;2023-06-26T06:06:43;19.40;99.90
46898;DHT22;32646;50.958;6.258;2023-06-26T06:09:10;19.40;99.90
46898;DHT22;32646;50.958;6.258;2023-06-26T06:11:37;19.40;99.90
46898;DHT22;32646;50.958;6.258;2023-06-26T06:14:03;19.50;99.90
46898;DHT22;32646;50.958;6.258;2023-06-26T06:16:30;19.50;99.90
46898;DHT22;32646;50.958;6.258;2023-06-26T06:18:56;19.50;99.90
46898;DHT22;32646;50.958;6.258;2023-06-26T06:21:23;19.60;99.90
46898;DHT22;32646;50.958;6.258;2023-06-26T06:23:50;19.70;99.90
46898;DHT22;32646;50.958;6.258;2023-06-26T06:26:16;19.70;99.90
46898;DHT22;32646;50.958;6.258;2023-06-26T06:28:43;19.90;99.90
46898;DHT22;32646;50.958;6.258;2023-06-26T06:31:09;19.90;99.90
46898;DHT22;32646;50.958;6.258;2023-06-26T06:33:36;19.90;99.90
46898;DHT22;32646;50.958;6.258;2023-06-26T06:36:04;19.90;99.90
46898;DHT22;32646;50.958;6.258;2023-06-26T06:38:30;19.80;99.90
46898;DHT22;32646;50.958;6.258;2023-06-26T06:40:57;19.90;99.90
46898;DHT22;32646;50.958;6.258;2023-06-26T06:43:24;19.90;99.90
46898;DHT22;32646;50.958;6.258;2023-06-26T06:45:50;20.00;99.90
46898;DHT22;32646;50.958;6.258;2023-06-26T06:48:17;20.00;99.90
46898;DHT22;32646;50.958;6.258;2023-06-26T06:50:44;20.00;99.90
46898;DHT22;32646;50.958;6.258;2023-06-26T06:53:10;20.10;99.90
46898;DHT22;32646;50.958;6.258;2023-06-26T06:55:37;20.20;99.90
46898;DHT22;32646;50.958;6.258;2023-06-26T06:58:03;20.10;99.90
46898;DHT22;32646;50.958;6.258;2023-06-26T07:00:31;20.10;99.90
46898;DHT22;32646;50.958;6.258;2023-06-26T07:02:58;20.10;99.90
46898;DHT22;32646;50.958;6.258;2023-06-26T07:05:25;20.20;99.90
46898;DHT22;32646;50.958;6.258;2023-06-26T07:07:51;20.20;99.90
46898;DHT22;32646;50.958;6.258;2023-06-26T07:10:18;20.40;99.90
46898;DHT22;32646;50.958;6.258;2023-06-26T07:12:45;20.50;99.90
46898;DHT22;32646;50.958;6.258;2023-06-26T07:15:11;20.60;99.90
46898;DHT22;32646;50.958;6.258;2023-06-26T07:17:38;20.60;99.90
46898;DHT22;32646;50.958;6.258;2023-06-26T07:20:06;20.70;99.90
46898;DHT22;32646;50.958;6.258;2023-06-26T07:22:33;20.70;99.90
46898;DHT22;32646;50.958;6.258;2023-06-26T07:24:59;20.80;99.90
46898;DHT22;32646;50.958;6.258;2023-06-26T07:27:26;21.00;99.90
46898;DHT22;32646;50.958;6.258;2023-06-26T07:29:52;21.10;99.90
46898;DHT22;32646;50.958;6.258;2023-06-26T07:32:19;21.00;99.90
46898;DHT22;32646;50.958;6.258;2023-06-26T07:34:46;21.10;99.90
46898;DHT22;32646;50.958;6.258;2023-06-26T07:37:12;21.20;99.90
46898;DHT22;32646;50.958;6.258;2023-06-26T07:39:39;21.40;99.90
46898;DHT22;32646;50.958;6.258;2023-06-26T07:42:05;21.50;99.90
46898;DHT22;32646;50.958;6.258;2023-06-26T07:44:32;21.30;99.90
46898;DHT22;32646;50.958;6.258;2023-06-26T07:46:59;21.20;99.90
46898;DHT22;32646;50.958;6.258;2023-06-26T07:49:26;21.20;99.90
46898;DHT22;32646;50.958;6.258;2023-06-26T07:51:52;21.10;99.90
46898;DHT22;32646;50.958;6.258;2023-06-26T07:54:19;21.10;99.90
46898;DHT22;32646;50.958;6.258;2023-06-26T07:56:53;21.10;99.90
46898;DHT22;32646;50.958;6.258;2023-06-26T07:59:21;21.30;99.90
46898;DHT22;32646;50.958;6.258;2023-06-26T08:01:47;21.40;99.90
46898;DHT22;32646;50.958;6.258;2023-06-26T08:04:14;21.30;99.90
46898;DHT22;32646;50.958;6.258;2023-06-26T08:06:41;21.50;99.90
46898;DHT22;32646;50.958;6.258;2023-06-26T08:09:08;21.50;99.90
46898;DHT22;32646;50.958;6.258;2023-06-26T08:11:34;21.80;99.80
46898;DHT22;32646;50.958;6.258;2023-06-26T08:14:01;22.00;98.60
46898;DHT22;32646;50.958;6.258;2023-06-26T08:16:27;22.30;96.10
46898;DHT22;32646;50.958;6.258;2023-06-26T08:18:54;23.10;92.70
46898;DHT22;32646;50.958;6.258;2023-06-26T08:21:21;23.30;86.20
46898;DHT22;32646;50.958;6.258;2023-06-26T08:23:47;23.40;91.40
46898;DHT22;32646;50.958;6.258;2023-06-26T08:26:14;23.60;83.50
46898;DHT22;32646;50.958;6.258;2023-06-26T08:28:40;23.80;86.00
46898;DHT22;32646;50.958;6.258;2023-06-26T08:31:07;23.70;82.20
46898;DHT22;32646;50.958;6.258;2023-06-26T08:33:34;24.40;81.90
46898;DHT22;32646;50.958;6.258;2023-06-26T08:36:00;24.60;80.70
46898;DHT22;32646;50.958;6.258;2023-06-26T08:38:27;24.00;76.40
46898;DHT22;32646;50.958;6.258;2023-06-26T08:40:54;24.00;84.50
46898;DHT22;32646;50.958;6.258;2023-06-26T08:43:20;24.50;81.90
46898;DHT22;32646;50.958;6.258;2023-06-26T08:45:47;24.20;80.40
46898;DHT22;32646;50.958;6.258;2023-06-26T08:48:14;24.00;79.70
46898;DHT22;32646;50.958;6.258;2023-06-26T08:50:42;23.80;85.20
46898;DHT22;32646;50.958;6.258;2023-06-26T08:53:38;23.90;78.90
46898;DHT22;32646;50.958;6.258;2023-06-26T08:56:07;23.40;83.80
46898;DHT22;32646;50.958;6.258;2023-06-26T08:58:36;23.60;81.10
46898;DHT22;32646;50.958;6.258;2023-06-26T09:01:04;23.90;76.50
46898;DHT22;32646;50.958;6.258;2023-06-26T09:03:31;23.60;81.70
46898;DHT22;32646;50.958;6.258;2023-06-26T09:05:58;23.00;82.80
46898;DHT22;32646;50.958;6.258;2023-06-26T09:08:25;23.40;88.60
46898;DHT22;32646;50.958;6.258;2023-06-26T09:10:52;24.00;78.00
46898;DHT22;32646;50.958;6.258;2023-06-26T09:13:19;23.80;79.40
46898;DHT22;32646;50.958;6.258;2023-06-26T09:15:56;23.40;80.10
46898;DHT22;32646;50.958;6.258;2023-06-26T09:18:23;23.80;76.20
46898;DHT22;32646;50.958;6.258;2023-06-26T09:20:50;24.30;80.80
46898;DHT22;32646;50.958;6.258;2023-06-26T09:23:17;24.50;71.60
46898;DHT22;32646;50.958;6.258;2023-06-26T09:25:47;24.60;71.50
46898;DHT22;32646;50.958;6.258;2023-06-26T09:28:13;24.80;68.90
46898;DHT22;32646;50.958;6.258;2023-06-26T09:30:40;25.50;69.00
46898;DHT22;32646;50.958;6.258;2023-06-26T09:33:18;25.50;69.30
46898;DHT22;32646;50.958;6.258;2023-06-26T09:35:46;25.30;70.90
46898;DHT22;32646;50.958;6.258;2023-06-26T09:38:14;25.30;69.40
46898;DHT22;32646;50.958;6.258;2023-06-26T09:40:41;25.20;68.00
46898;DHT22;32646;50.958;6.258;2023-06-26T09:43:09;25.10;70.30
46898;DHT22;32646;50.958;6.258;2023-06-26T09:45:40;24.80;68.60
46898;DHT22;32646;50.958;6.258;2023-06-26T09:48:07;25.20;68.50
46898;DHT22;32646;50.958;6.258;2023-06-26T09:50:34;25.10;71.20
46898;DHT22;32646;50.958;6.258;2023-06-26T09:53:07;25.00;67.70
46898;DHT22;32646;50.958;6.258;2023-06-26T09:55:35;24.40;68.30
46898;DHT22;32646;50.958;6.258;2023-06-26T09:58:02;23.40;74.00
46898;DHT22;32646;50.958;6.258;2023-06-26T10:00:31;23.00;78.80
46898;DHT22;32646;50.958;6.258;2023-06-26T10:02:59;22.70;82.60
46898;DHT22;32646;50.958;6.258;2023-06-26T10:05:26;23.30;80.60
46898;DHT22;32646;50.958;6.258;2023-06-26T10:07:54;24.40;74.40
46898;DHT22;32646;50.958;6.258;2023-06-26T10:10:22;25.20;70.40
46898;DHT22;32646;50.958;6.258;2023-06-26T10:12:53;25.80;68.00
46898;DHT22;32646;50.958;6.258;2023-06-26T10:15:21;25.90;66.60
46898;DHT22;32646;50.958;6.258;2023-06-26T10:17:49;26.00;60.50
46898;DHT22;32646;50.958;6.258;2023-06-26T10:20:16;25.10;59.10
46898;DHT22;32646;50.958;6.258;2023-06-26T10:22:45;25.10;66.20
46898;DHT22;32646;50.958;6.258;2023-06-26T10:25:19;25.30;64.20
46898;DHT22;32646;50.958;6.258;2023-06-26T10:27:50;25.30;61.50
46898;DHT22;32646;50.958;6.258;2023-06-26T10:30:24;25.30;66.30
46898;DHT22;32646;50.958;6.258;2023-06-26T10:32:53;25.80;64.90
46898;DHT22;32646;50.958;6.258;2023-06-26T10:35:20;26.20;60.60
46898;DHT22;32646;50.958;6.258;2023-06-26T10:37:48;26.10;56.20
46898;DHT22;32646;50.958;6.258;2023-06-26T10:40:24;26.00;57.30
46898;DHT22;32646;50.958;6.258;2023-06-26T10:43:05;26.00;58.80
46898;DHT22;32646;50.958;6.258;2023-06-26T10:45:33;25.70;57.00
46898;DHT22;32646;50.958;6.258;2023-06-26T10:48:00;25.80;60.10
46898;DHT22;32646;50.958;6.258;2023-06-26T10:50:29;25.70;55.30
46898;DHT22;32646;50.958;6.258;2023-06-26T10:53:34;26.20;61.20
46898;DHT22;32646;50.958;6.258;2023-06-26T10:56:02;26.00;58.10
46898;DHT22;32646;50.958;6.258;2023-06-26T11:03:50;25.90;53.50
46898;DHT22;32646;50.958;6.258;2023-06-26T11:06:26;25.50;54.70
46898;DHT22;32646;50.958;6.258;2023-06-26T11:14:21;25.80;51.70
46898;DHT22;32646;50.958;6.258;2023-06-26T11:16:49;26.20;51.10
46898;DHT22;32646;50.958;6.258;2023-06-26T11:19:19;26.20;52.60
46898;DHT22;32646;50.958;6.258;2023-06-26T11:21:47;26.70;54.50
46898;DHT22;32646;50.958;6.258;2023-06-26T11:24:13;26.30;57.00
46898;DHT22;32646;50.958;6.258;2023-06-26T11:26:41;25.20;51.90
46898;DHT22;32646;50.958;6.258;2023-06-26T11:29:09;24.30;57.40
46898;DHT22;32646;50.958;6.258;2023-06-26T11:31:37;24.50;56.20
46898;DHT22;32646;50.958;6.258;2023-06-26T11:34:06;25.10;52.80
46898;DHT22;32646;50.958;6.258;2023-06-26T11:36:33;25.90;52.70
46898;DHT22;32646;50.958;6.258;2023-06-26T11:39:01;26.40;49.00
46898;DHT22;32646;50.958;6.258;2023-06-26T11:41:30;25.90;51.20
46898;DHT22;32646;50.958;6.258;2023-06-26T11:44:04;26.30;47.60
46898;DHT22;32646;50.958;6.258;2023-06-26T11:46:32;26.00;49.90
46898;DHT22;32646;50.958;6.258;2023-06-26T11:49:03;26.60;46.80
46898;DHT22;32646;50.958;6.258;2023-06-26T11:51:29;27.30;48.30
46898;DHT22;32646;50.958;6.258;2023-06-26T11:53:56;26.70;46.80
46898;DHT22;32646;50.958;6.258;2023-06-26T11:56:23;26.90;49.70
46898;DHT22;32646;50.958;6.258;2023-06-26T11:59:02;26.90;46.90
46898;DHT22;32646;50.958;6.258;2023-06-26T12:01:40;26.90;49.50
46898;DHT22;32646;50.958;6.258;2023-06-26T12:04:09;27.60;47.50
46898;DHT22;32646;50.958;6.258;2023-06-26T12:06:36;27.80;44.90
46898;DHT22;32646;50.958;6.258;2023-06-26T12:09:06;27.20;47.10
46898;DHT22;32646;50.958;6.258;2023-06-26T12:11:35;26.50;49.70
46898;DHT22;32646;50.958;6.258;2023-06-26T12:14:02;26.20;49.60
46898;DHT22;32646;50.958;6.258;2023-06-26T12:16:29;26.00;46.80
46898;DHT22;32646;50.958;6.258;2023-06-26T12:19:01;25.30;46.20
46898;DHT22;32646;50.958;6.258;2023-06-26T12:21:55;24.80;48.40
46898;DHT22;32646;50.958;6.258;2023-06-26T12:24:21;24.70;46.90
46898;DHT22;32646;50.958;6.258;2023-06-26T12:26:51;24.50;50.70
46898;DHT22;32646;50.958;6.258;2023-06-26T12:29:19;24.70;49.10
46898;DHT22;32646;50.958;6.258;2023-06-26T12:31:52;25.20;47.00
46898;DHT22;32646;50.958;6.258;2023-06-26T12:34:26;25.30;46.20
46898;DHT22;32646;50.958;6.258;2023-06-26T12:36:53;25.00;47.80
46898;DHT22;32646;50.958;6.258;2023-06-26T12:39:20;25.10;48.00
46898;DHT22;32646;50.958;6.258;2023-06-26T12:41:49;25.30;51.30
46898;DHT22;32646;50.958;6.258;2023-06-26T12:44:26;26.20;44.50
46898;DHT22;32646;50.958;6.258;2023-06-26T12:46:57;26.20;45.40
46898;DHT22;32646;50.958;6.258;2023-06-26T12:52:03;25.50;44.80
46898;DHT22;32646;50.958;6.258;2023-06-26T12:54:30;26.20;45.30
46898;DHT22;32646;50.958;6.258;2023-06-26T12:56:57;26.40;46.30
46898;DHT22;32646;50.958;6.258;2023-06-26T12:59:24;26.90;43.60
46898;DHT22;32646;50.958;6.258;2023-06-26T13:01:51;27.20;45.20
46898;DHT22;32646;50.958;6.258;2023-06-26T13:04:18;27.40;43.90
46898;DHT22;32646;50.958;6.258;2023-06-26T13:06:44;27.40;43.30
46898;DHT22;32646;50.958;6.258;2023-06-26T13:09:11;26.70;43.50
46898;DHT22;32646;50.958;6.258;2023-06-26T13:11:38;26.20;44.70
46898;DHT22;32646;50.958;6.258;2023-06-26T13:14:05;25.70;43.20
46898;DHT22;32646;50.958;6.258;2023-06-26T13:16:37;26.50;44.50
46898;DHT22;32646;50.958;6.258;2023-06-26T13:19:04;26.00;44.40
46898;DHT22;32646;50.958;6.258;2023-06-26T13:21:30;26.40;45.10
46898;DHT22;32646;50.958;6.258;2023-06-26T13:23:57;26.30;42.40
46898;DHT22;32646;50.958;6.258;2023-06-26T13:26:24;25.80;43.70
46898;DHT22;32646;50.958;6.258;2023-06-26T13:29:03;25.90;45.60
46898;DHT22;32646;50.958;6.258;2023-06-26T13:31:30;26.50;44.20
46898;DHT22;32646;50.958;6.258;2023-06-26T13:33:58;26.30;48.10
46898;DHT22;32646;50.958;6.258;2023-06-26T13:36:25;26.60;48.50
46898;DHT22;32646;50.958;6.258;2023-06-26T13:38:51;26.10;44.10
46898;DHT22;32646;50.958;6.258;2023-06-26T13:41:18;25.60;47.60
46898;DHT22;32646;50.958;6.258;2023-06-26T13:43:45;25.10;48.70
46898;DHT22;32646;50.958;6.258;2023-06-26T13:46:12;24.60;48.30
46898;DHT22;32646;50.958;6.258;2023-06-26T13:48:38;24.60;47.00
46898;DHT22;32646;50.958;6.258;2023-06-26T13:51:05;24.70;45.40
46898;DHT22;32646;50.958;6.258;2023-06-26T13:53:31;24.90;45.40
46898;DHT22;32646;50.958;6.258;2023-06-26T13:56:00;25.30;44.00
46898;DHT22;32646;50.958;6.258;2023-06-26T13:58:27;25.10;43.60
46898;DHT22;32646;50.958;6.258;2023-06-26T14:00:53;25.60;44.50
46898;DHT22;32646;50.958;6.258;2023-06-26T14:03:20;25.90;46.10
46898;DHT22;32646;50.958;6.258;2023-06-26T14:05:47;25.80;46.30
46898;DHT22;32646;50.958;6.258;2023-06-26T14:08:13;25.50;43.50
46898;DHT22;32646;50.958;6.258;2023-06-26T14:10:40;24.70;47.00
46898;DHT22;32646;50.958;6.258;2023-06-26T14:13:07;24.40;47.40
46898;DHT22;32646;50.958;6.258;2023-06-26T14:15:34;24.80;46.90
46898;DHT22;32646;50.958;6.258;2023-06-26T14:18:01;25.30;49.90
46898;DHT22;32646;50.958;6.258;2023-06-26T14:20:28;25.30;42.40
46898;DHT22;32646;50.958;6.258;2023-06-26T14:22:54;25.80;45.30
46898;DHT22;32646;50.958;6.258;2023-06-26T14:25:21;25.00;41.60
46898;DHT22;32646;50.958;6.258;2023-06-26T14:27:47;24.70;46.00
46898;DHT22;32646;50.958;6.258;2023-06-26T14:30:14;24.40;47.50
46898;DHT22;32646;50.958;6.258;2023-06-26T14:32:41;24.20;46.60
46898;DHT22;32646;50.958;6.258;2023-06-26T14:35:07;24.20;47.40
46898;DHT22;32646;50.958;6.258;2023-06-26T14:37:36;24.40;48.50
46898;DHT22;32646;50.958;6.258;2023-06-26T14:40:03;24.80;46.20
46898;DHT22;32646;50.958;6.258;2023-06-26T14:42:30;25.00;48.20
46898;DHT22;32646;50.958;6.258;2023-06-26T14:44:57;25.40;48.60
46898;DHT22;32646;50.958;6.258;2023-06-26T14:47:24;25.90;44.90
46898;DHT22;32646;50.958;6.258;2023-06-26T14:49:51;26.20;41.30
46898;DHT22;32646;50.958;6.258;2023-06-26T14:52:17;25.90;43.90
46898;DHT22;32646;50.958;6.258;2023-06-26T14:54:44;25.10;45.50
46898;DHT22;32646;50.958;6.258;2023-06-26T14:57:11;24.70;47.50
46898;DHT22;32646;50.958;6.258;2023-06-26T14:59:37;24.40;48.40
46898;DHT22;32646;50.958;6.258;2023-06-26T15:02:04;24.00;48.20
46898;DHT22;32646;50.958;6.258;2023-06-26T15:04:32;23.80;47.00
46898;DHT22;32646;50.958;6.258;2023-06-26T15:06:58;23.90;44.50
46898;DHT22;32646;50.958;6.258;2023-06-26T15:09:25;23.90;47.90
46898;DHT22;32646;50.958;6.258;2023-06-26T15:11:51;23.70;46.40
46898;DHT22;32646;50.958;6.258;2023-06-26T15:14:18;23.40;45.20
46898;DHT22;32646;50.958;6.258;2023-06-26T15:16:45;23.20;45.20
46898;DHT22;32646;50.958;6.258;2023-06-26T15:19:11;23.10;46.60
46898;DHT22;32646;50.958;6.258;2023-06-26T15:21:38;23.30;47.80
46898;DHT22;32646;50.958;6.258;2023-06-26T15:24:08;23.80;47.60
46898;DHT22;32646;50.958;6.258;2023-06-26T15:26:35;24.10;50.00
46898;DHT22;32646;50.958;6.258;2023-06-26T15:29:02;24.20;49.90
46898;DHT22;32646;50.958;6.258;2023-06-26T15:31:29;24.10;49.10
46898;DHT22;32646;50.958;6.258;2023-06-26T15:33:56;23.90;46.70
46898;DHT22;32646;50.958;6.258;2023-06-26T15:36:23;23.70;44.60
46898;DHT22;32646;50.958;6.258;2023-06-26T15:38:49;23.60;47.40
46898;DHT22;32646;50.958;6.258;2023-06-26T15:41:16;23.40;45.80
46898;DHT22;32646;50.958;6.258;2023-06-26T15:43:42;23.20;47.00
46898;DHT22;32646;50.958;6.258;2023-06-26T15:46:09;23.20;46.40
46898;DHT22;32646;50.958;6.258;2023-06-26T15:48:36;23.10;47.80